sensor_id;sensor_type;location;lat;lon;timestamp;temperature;humidity
18541;DHT22;9400;50.924;5.328;2022-09-09T00:01:28;16.50;99.90
18541;DHT22;9400;50.924;5.328;2022-09-09T00:04:02;16.50;99.90
18541;DHT22;9400;50.924;5.328;2022-09-09T00:06:33;16.40;99.90
18541;DHT22;9400;50.924;5.328;2022-09-09T00:09:06;16.40;99.90
18541;DHT22;9400;50.924;5.328;2022-09-09T00:11:43;16.40;99.90
18541;DHT22;9400;50.924;5.328;2022-09-09T00:14:18;16.40;99.90
18541;DHT22;9400;50.924;5.328;2022-09-09T00:16:55;16.40;99.90
18541;DHT22;9400;50.924;5.328;2022-09-09T00:19:30;16.40;99.90
18541;DHT22;9400;50.924;5.328;2022-09-09T00:22:13;16.40;99.90
18541;DHT22;9400;50.924;5.328;2022-09-09T00:24:44;16.40;99.90
18541;DHT22;9400;50.924;5.328;2022-09-09T00:27:19;16.40;99.90
18541;DHT22;9400;50.924;5.328;2022-09-09T00:29:53;16.30;99.90
18541;DHT22;9400;50.924;5.328;2022-09-09T00:32:22;16.20;99.90
18541;DHT22;9400;50.924;5.328;2022-09-09T00:34:58;16.20;99.90
18541;DHT22;9400;50.924;5.328;2022-09-09T00:37:27;16.20;99.90
18541;DHT22;9400;50.924;5.328;2022-09-09T00:40:01;16.10;99.90
18541;DHT22;9400;50.924;5.328;2022-09-09T00:42:41;16.10;99.90
18541;DHT22;9400;50.924;5.328;2022-09-09T00:45:33;16.10;99.90
18541;DHT22;9400;50.924;5.328;2022-09-09T00:48:09;16.00;99.90
18541;DHT22;9400;50.924;5.328;2022-09-09T00:50:45;16.00;99.90
18541;DHT22;9400;50.924;5.328;2022-09-09T00:53:32;15.90;99.90
18541;DHT22;9400;50.924;5.328;2022-09-09T00:56:12;15.90;99.90
18541;DHT22;9400;50.924;5.328;2022-09-09T00:58:50;15.80;99.90
18541;DHT22;9400;50.924;5.328;2022-09-09T01:01:22;15.80;99.90
18541;DHT22;9400;50.924;5.328;2022-09-09T01:03:53;15.90;99.90
18541;DHT22;9400;50.924;5.328;2022-09-09T01:06:25;15.90;99.90
18541;DHT22;9400;50.924;5.328;2022-09-09T01:09:16;15.90;99.90
18541;DHT22;9400;50.924;5.328;2022-09-09T01:11:59;15.90;99.90
18541;DHT22;9400;50.924;5.328;2022-09-09T01:14:40;15.90;99.90
18541;DHT22;9400;50.924;5.328;2022-09-09T01:17:15;15.80;99.90
18541;DHT22;9400;50.924;5.328;2022-09-09T01:19:55;15.90;99.90
18541;DHT22;9400;50.924;5.328;2022-09-09T01:22:33;15.90;99.90
18541;DHT22;9400;50.924;5.328;2022-09-09T01:25:20;15.90;99.90
18541;DHT22;9400;50.924;5.328;2022-09-09T01:27:52;15.90;99.90
18541;DHT22;9400;50.924;5.328;2022-09-09T01:30:22;15.90;99.90
18541;DHT22;9400;50.924;5.328;2022-09-09T01:32:53;16.00;99.90
18541;DHT22;9400;50.924;5.328;2022-09-09T01:35:39;16.00;99.90
18541;DHT22;9400;50.924;5.328;2022-09-09T01:38:08;15.90;99.90
18541;DHT22;9400;50.924;5.328;2022-09-09T01:40:36;15.90;99.90
18541;DHT22;9400;50.924;5.328;2022-09-09T01:43:05;15.90;99.90
18541;DHT22;9400;50.924;5.328;2022-09-09T01:45:33;15.90;99.90
18541;DHT22;9400;50.924;5.328;2022-09-09T01:48:02;15.90;99.90
18541;DHT22;9400;50.924;5.328;2022-09-09T01:50:31;16.00;99.90
18541;DHT22;9400;50.924;5.328;2022-09-09T01:53:01;15.90;99.90
18541;DHT22;9400;50.924;5.328;2022-09-09T01:55:36;16.00;99.90
18541;DHT22;9400;50.924;5.328;2022-09-09T01:58:21;15.90;99.90
18541;DHT22;9400;50.924;5.328;2022-09-09T02:00:56;16.00;99.90
18541;DHT22;9400;50.924;5.328;2022-09-09T02:03:28;16.00;99.90
18541;DHT22;9400;50.924;5.328;2022-09-09T02:06:04;16.00;99.90
18541;DHT22;9400;50.924;5.328;2022-09-09T02:08:40;16.00;99.90
18541;DHT22;9400;50.924;5.328;2022-09-09T02:11:14;16.00;99.90
18541;DHT22;9400;50.924;5.328;2022-09-09T02:13:45;16.00;99.90
18541;DHT22;9400;50.924;5.328;2022-09-09T02:16:16;16.00;99.90
18541;DHT22;9400;50.924;5.328;2022-09-09T02:18:50;16.10;99.90
18541;DHT22;9400;50.924;5.328;2022-09-09T02:21:19;16.10;99.90
18541;DHT22;9400;50.924;5.328;2022-09-09T02:23:49;16.10;99.90
18541;DHT22;9400;50.924;5.328;2022-09-09T02:26:19;16.10;99.90
18541;DHT22;9400;50.924;5.328;2022-09-09T02:28:52;16.10;99.90
18541;DHT22;9400;50.924;5.328;2022-09-09T02:31:22;16.00;99.90
18541;DHT22;9400;50.924;5.328;2022-09-09T02:33:55;15.90;99.90
18541;DHT22;9400;50.924;5.328;2022-09-09T02:36:28;15.90;99.90
18541;DHT22;9400;50.924;5.328;2022-09-09T02:38:56;15.90;99.90
18541;DHT22;9400;50.924;5.328;2022-09-09T02:41:27;15.90;99.90
18541;DHT22;9400;50.924;5.328;2022-09-09T02:43:59;16.00;99.90
18541;DHT22;9400;50.924;5.328;2022-09-09T02:46:52;16.10;99.90
18541;DHT22;9400;50.924;5.328;2022-09-09T02:49:31;16.00;99.90
18541;DHT22;9400;50.924;5.328;2022-09-09T02:52:07;16.00;99.90
18541;DHT22;9400;50.924;5.328;2022-09-09T02:54:38;15.90;99.90
18541;DHT22;9400;50.924;5.328;2022-09-09T02:57:10;16.00;99.90
18541;DHT22;9400;50.924;5.328;2022-09-09T02:59:40;15.90;99.90
18541;DHT22;9400;50.924;5.328;2022-09-09T03:02:08;15.90;99.90
18541;DHT22;9400;50.924;5.328;2022-09-09T03:04:36;15.90;99.90
18541;DHT22;9400;50.924;5.328;2022-09-09T03:07:03;15.90;99.90
18541;DHT22;9400;50.924;5.328;2022-09-09T03:09:31;15.90;99.90
18541;DHT22;9400;50.924;5.328;2022-09-09T03:12:00;15.90;99.90
18541;DHT22;9400;50.924;5.328;2022-09-09T03:14:28;15.90;99.90
18541;DHT22;9400;50.924;5.328;2022-09-09T03:16:58;16.00;99.90
18541;DHT22;9400;50.924;5.328;2022-09-09T03:19:27;15.90;99.90
18541;DHT22;9400;50.924;5.328;2022-09-09T03:21:56;16.00;99.90
18541;DHT22;9400;50.924;5.328;2022-09-09T03:24:25;16.00;99.90
18541;DHT22;9400;50.924;5.328;2022-09-09T03:26:53;16.00;99.90
18541;DHT22;9400;50.924;5.328;2022-09-09T03:29:22;16.10;99.90
18541;DHT22;9400;50.924;5.328;2022-09-09T03:31:50;16.20;99.90
18541;DHT22;9400;50.924;5.328;2022-09-09T03:34:19;16.20;99.90
18541;DHT22;9400;50.924;5.328;2022-09-09T03:36:47;16.20;99.90
18541;DHT22;9400;50.924;5.328;2022-09-09T03:39:16;16.20;99.90
18541;DHT22;9400;50.924;5.328;2022-09-09T03:41:43;16.30;99.90
18541;DHT22;9400;50.924;5.328;2022-09-09T03:44:12;16.40;99.90
18541;DHT22;9400;50.924;5.328;2022-09-09T03:46:40;16.40;99.90
18541;DHT22;9400;50.924;5.328;2022-09-09T03:49:08;16.40;99.90
18541;DHT22;9400;50.924;5.328;2022-09-09T03:51:37;16.30;99.90
18541;DHT22;9400;50.924;5.328;2022-09-09T03:54:07;16.30;99.90
18541;DHT22;9400;50.924;5.328;2022-09-09T03:56:36;16.30;99.90
18541;DHT22;9400;50.924;5.328;2022-09-09T03:59:04;16.20;99.90
18541;DHT22;9400;50.924;5.328;2022-09-09T04:01:31;16.30;99.90
18541;DHT22;9400;50.924;5.328;2022-09-09T04:03:59;16.20;99.90
18541;DHT22;9400;50.924;5.328;2022-09-09T04:06:28;16.20;99.90
18541;DHT22;9400;50.924;5.328;2022-09-09T04:08:57;16.30;99.90
18541;DHT22;9400;50.924;5.328;2022-09-09T04:11:25;16.30;99.90
18541;DHT22;9400;50.924;5.328;2022-09-09T04:13:53;16.20;99.90
18541;DHT22;9400;50.924;5.328;2022-09-09T04:16:21;16.10;99.90
18541;DHT22;9400;50.924;5.328;2022-09-09T04:18:48;16.10;99.90
18541;DHT22;9400;50.924;5.328;2022-09-09T04:21:16;16.10;99.90
18541;DHT22;9400;50.924;5.328;2022-09-09T04:23:44;16.10;99.90
18541;DHT22;9400;50.924;5.328;2022-09-09T04:26:13;16.00;99.90
18541;DHT22;9400;50.924;5.328;2022-09-09T04:28:41;16.00;99.90
18541;DHT22;9400;50.924;5.328;2022-09-09T04:31:10;16.00;99.90
18541;DHT22;9400;50.924;5.328;2022-09-09T04:33:43;16.00;99.90
18541;DHT22;9400;50.924;5.328;2022-09-09T04:36:11;16.00;99.90
18541;DHT22;9400;50.924;5.328;2022-09-09T04:38:39;16.00;99.90
18541;DHT22;9400;50.924;5.328;2022-09-09T04:41:07;16.00;99.90
18541;DHT22;9400;50.924;5.328;2022-09-09T04:43:38;16.00;99.90
18541;DHT22;9400;50.924;5.328;2022-09-09T04:46:06;16.00;99.90
18541;DHT22;9400;50.924;5.328;2022-09-09T04:48:34;15.90;99.90
18541;DHT22;9400;50.924;5.328;2022-09-09T04:51:03;15.90;99.90
18541;DHT22;9400;50.924;5.328;2022-09-09T04:53:33;15.90;99.90
18541;DHT22;9400;50.924;5.328;2022-09-09T04:56:03;15.90;99.90
18541;DHT22;9400;50.924;5.328;2022-09-09T04:58:32;15.90;99.90
18541;DHT22;9400;50.924;5.328;2022-09-09T05:01:08;15.90;99.90
18541;DHT22;9400;50.924;5.328;2022-09-09T05:03:37;15.80;99.90
18541;DHT22;9400;50.924;5.328;2022-09-09T05:06:06;15.90;99.90
18541;DHT22;9400;50.924;5.328;2022-09-09T05:08:36;15.90;99.90
18541;DHT22;9400;50.924;5.328;2022-09-09T05:11:16;15.90;99.90
18541;DHT22;9400;50.924;5.328;2022-09-09T05:13:45;16.00;99.90
18541;DHT22;9400;50.924;5.328;2022-09-09T05:16:15;16.00;99.90
18541;DHT22;9400;50.924;5.328;2022-09-09T05:18:43;16.00;99.90
18541;DHT22;9400;50.924;5.328;2022-09-09T05:21:13;16.10;99.90
18541;DHT22;9400;50.924;5.328;2022-09-09T05:23:41;16.00;99.90
18541;DHT22;9400;50.924;5.328;2022-09-09T05:26:12;16.00;99.90
18541;DHT22;9400;50.924;5.328;2022-09-09T05:28:40;16.00;99.90
18541;DHT22;9400;50.924;5.328;2022-09-09T05:31:10;15.90;99.90
18541;DHT22;9400;50.924;5.328;2022-09-09T05:33:41;15.90;99.90
18541;DHT22;9400;50.924;5.328;2022-09-09T05:36:11;16.00;99.90
18541;DHT22;9400;50.924;5.328;2022-09-09T05:38:40;16.00;99.90
18541;DHT22;9400;50.924;5.328;2022-09-09T05:41:09;16.20;99.90
18541;DHT22;9400;50.924;5.328;2022-09-09T05:43:37;16.20;99.90
18541;DHT22;9400;50.924;5.328;2022-09-09T05:46:07;16.30;99.90
18541;DHT22;9400;50.924;5.328;2022-09-09T05:48:36;16.30;99.90
18541;DHT22;9400;50.924;5.328;2022-09-09T05:51:07;16.30;99.90
18541;DHT22;9400;50.924;5.328;2022-09-09T05:53:36;16.40;99.90
18541;DHT22;9400;50.924;5.328;2022-09-09T05:56:06;16.40;99.90
18541;DHT22;9400;50.924;5.328;2022-09-09T05:58:36;16.50;99.90
18541;DHT22;9400;50.924;5.328;2022-09-09T06:01:05;16.50;99.90
18541;DHT22;9400;50.924;5.328;2022-09-09T06:03:34;16.50;99.90
18541;DHT22;9400;50.924;5.328;2022-09-09T06:06:06;16.50;99.90
18541;DHT22;9400;50.924;5.328;2022-09-09T06:08:36;16.60;99.90
18541;DHT22;9400;50.924;5.328;2022-09-09T06:11:05;16.60;99.90
18541;DHT22;9400;50.924;5.328;2022-09-09T06:13:33;16.70;99.90
18541;DHT22;9400;50.924;5.328;2022-09-09T06:16:03;16.70;99.90
18541;DHT22;9400;50.924;5.328;2022-09-09T06:18:32;16.70;99.90
18541;DHT22;9400;50.924;5.328;2022-09-09T06:21:01;16.70;99.90
18541;DHT22;9400;50.924;5.328;2022-09-09T06:23:31;16.70;99.90
18541;DHT22;9400;50.924;5.328;2022-09-09T06:26:04;16.70;99.90
18541;DHT22;9400;50.924;5.328;2022-09-09T06:28:33;16.80;99.90
18541;DHT22;9400;50.924;5.328;2022-09-09T06:31:02;16.80;99.90
18541;DHT22;9400;50.924;5.328;2022-09-09T06:33:31;16.90;99.90
18541;DHT22;9400;50.924;5.328;2022-09-09T06:36:03;16.80;99.90
18541;DHT22;9400;50.924;5.328;2022-09-09T06:38:33;16.80;99.90
18541;DHT22;9400;50.924;5.328;2022-09-09T06:41:00;16.90;99.90
18541;DHT22;9400;50.924;5.328;2022-09-09T06:43:28;16.90;99.90
18541;DHT22;9400;50.924;5.328;2022-09-09T06:45:57;17.00;99.90
18541;DHT22;9400;50.924;5.328;2022-09-09T06:48:25;17.10;99.90
18541;DHT22;9400;50.924;5.328;2022-09-09T06:51:01;17.20;99.90
18541;DHT22;9400;50.924;5.328;2022-09-09T06:53:29;17.20;99.90
18541;DHT22;9400;50.924;5.328;2022-09-09T06:56:01;17.30;99.90
18541;DHT22;9400;50.924;5.328;2022-09-09T06:58:30;17.50;99.90
18541;DHT22;9400;50.924;5.328;2022-09-09T07:01:05;17.60;99.90
18541;DHT22;9400;50.924;5.328;2022-09-09T07:03:33;17.60;99.90
18541;DHT22;9400;50.924;5.328;2022-09-09T07:06:01;17.50;99.90
18541;DHT22;9400;50.924;5.328;2022-09-09T07:08:30;17.50;99.90
18541;DHT22;9400;50.924;5.328;2022-09-09T07:11:06;17.50;99.90
18541;DHT22;9400;50.924;5.328;2022-09-09T07:13:34;17.50;99.90
18541;DHT22;9400;50.924;5.328;2022-09-09T07:16:04;17.40;99.90
18541;DHT22;9400;50.924;5.328;2022-09-09T07:18:32;17.50;99.90
18541;DHT22;9400;50.924;5.328;2022-09-09T07:21:01;17.50;99.90
18541;DHT22;9400;50.924;5.328;2022-09-09T07:23:30;17.50;99.90
18541;DHT22;9400;50.924;5.328;2022-09-09T07:25:58;17.50;99.90
18541;DHT22;9400;50.924;5.328;2022-09-09T07:28:28;17.60;99.90
18541;DHT22;9400;50.924;5.328;2022-09-09T07:30:58;17.70;99.90
18541;DHT22;9400;50.924;5.328;2022-09-09T07:33:28;17.90;99.90
18541;DHT22;9400;50.924;5.328;2022-09-09T07:36:04;17.90;99.90
18541;DHT22;9400;50.924;5.328;2022-09-09T07:38:36;17.90;99.90
18541;DHT22;9400;50.924;5.328;2022-09-09T07:41:06;18.00;99.90
18541;DHT22;9400;50.924;5.328;2022-09-09T07:43:40;18.20;99.90
18541;DHT22;9400;50.924;5.328;2022-09-09T07:46:09;18.30;99.90
18541;DHT22;9400;50.924;5.328;2022-09-09T07:48:38;18.40;99.90
18541;DHT22;9400;50.924;5.328;2022-09-09T07:51:08;18.40;99.90
18541;DHT22;9400;50.924;5.328;2022-09-09T07:53:37;18.40;99.90
18541;DHT22;9400;50.924;5.328;2022-09-09T07:56:08;18.30;99.90
18541;DHT22;9400;50.924;5.328;2022-09-09T07:58:39;18.20;99.90
18541;DHT22;9400;50.924;5.328;2022-09-09T08:01:09;18.10;99.90
18541;DHT22;9400;50.924;5.328;2022-09-09T08:03:37;18.10;99.90
18541;DHT22;9400;50.924;5.328;2022-09-09T08:06:07;18.10;99.90
18541;DHT22;9400;50.924;5.328;2022-09-09T08:08:36;18.00;99.90
18541;DHT22;9400;50.924;5.328;2022-09-09T08:11:06;18.00;99.90
18541;DHT22;9400;50.924;5.328;2022-09-09T08:13:35;18.00;99.90
18541;DHT22;9400;50.924;5.328;2022-09-09T08:16:10;18.10;99.90
18541;DHT22;9400;50.924;5.328;2022-09-09T08:18:38;18.00;99.90
18541;DHT22;9400;50.924;5.328;2022-09-09T08:21:08;18.00;99.90
18541;DHT22;9400;50.924;5.328;2022-09-09T08:23:38;17.90;99.90
18541;DHT22;9400;50.924;5.328;2022-09-09T08:26:10;17.90;99.90
18541;DHT22;9400;50.924;5.328;2022-09-09T08:28:38;17.80;99.90
18541;DHT22;9400;50.924;5.328;2022-09-09T08:31:10;17.80;99.90
18541;DHT22;9400;50.924;5.328;2022-09-09T08:33:39;17.80;99.90
18541;DHT22;9400;50.924;5.328;2022-09-09T08:36:10;17.70;99.90
18541;DHT22;9400;50.924;5.328;2022-09-09T08:38:38;17.80;99.90
18541;DHT22;9400;50.924;5.328;2022-09-09T08:44:14;17.90;99.90
18541;DHT22;9400;50.924;5.328;2022-09-09T08:46:58;17.90;99.90
18541;DHT22;9400;50.924;5.328;2022-09-09T08:49:56;17.80;99.90
18541;DHT22;9400;50.924;5.328;2022-09-09T08:52:29;17.70;99.90
18541;DHT22;9400;50.924;5.328;2022-09-09T08:55:05;17.70;99.90
18541;DHT22;9400;50.924;5.328;2022-09-09T08:57:40;17.70;99.90
18541;DHT22;9400;50.924;5.328;2022-09-09T09:00:10;17.70;99.90
18541;DHT22;9400;50.924;5.328;2022-09-09T09:02:45;17.60;99.90
18541;DHT22;9400;50.924;5.328;2022-09-09T09:05:23;17.60;99.90
18541;DHT22;9400;50.924;5.328;2022-09-09T09:08:02;17.70;99.90
18541;DHT22;9400;50.924;5.328;2022-09-09T09:10:42;17.80;99.90
18541;DHT22;9400;50.924;5.328;2022-09-09T09:13:18;17.80;99.90
18541;DHT22;9400;50.924;5.328;2022-09-09T09:15:50;17.90;99.90
18541;DHT22;9400;50.924;5.328;2022-09-09T09:18:22;17.80;99.90
18541;DHT22;9400;50.924;5.328;2022-09-09T09:20:57;17.80;99.90
18541;DHT22;9400;50.924;5.328;2022-09-09T09:23:33;17.90;99.90
18541;DHT22;9400;50.924;5.328;2022-09-09T09:26:09;17.90;99.90
18541;DHT22;9400;50.924;5.328;2022-09-09T09:28:38;18.00;99.90
18541;DHT22;9400;50.924;5.328;2022-09-09T09:31:10;18.10;99.90
18541;DHT22;9400;50.924;5.328;2022-09-09T09:33:46;18.00;99.90
18541;DHT22;9400;50.924;5.328;2022-09-09T09:36:14;18.10;99.90
18541;DHT22;9400;50.924;5.328;2022-09-09T09:38:54;18.20;99.90
18541;DHT22;9400;50.924;5.328;2022-09-09T09:41:34;18.40;99.90
18541;DHT22;9400;50.924;5.328;2022-09-09T09:44:04;18.60;99.90
18541;DHT22;9400;50.924;5.328;2022-09-09T09:46:33;18.70;99.90
18541;DHT22;9400;50.924;5.328;2022-09-09T09:49:05;18.60;99.90
18541;DHT22;9400;50.924;5.328;2022-09-09T09:51:34;18.70;99.90
18541;DHT22;9400;50.924;5.328;2022-09-09T09:54:18;18.90;99.90
18541;DHT22;9400;50.924;5.328;2022-09-09T09:56:49;18.70;99.90
18541;DHT22;9400;50.924;5.328;2022-09-09T09:59:23;18.60;99.90
18541;DHT22;9400;50.924;5.328;2022-09-09T10:01:51;18.60;99.90
18541;DHT22;9400;50.924;5.328;2022-09-09T10:04:22;18.50;99.90
18541;DHT22;9400;50.924;5.328;2022-09-09T10:06:51;18.40;99.90
18541;DHT22;9400;50.924;5.328;2022-09-09T10:09:24;18.20;99.90
18541;DHT22;9400;50.924;5.328;2022-09-09T10:12:00;18.30;99.90
18541;DHT22;9400;50.924;5.328;2022-09-09T10:14:33;18.30;99.90
18541;DHT22;9400;50.924;5.328;2022-09-09T10:17:16;18.20;99.90
18541;DHT22;9400;50.924;5.328;2022-09-09T10:19:58;18.30;99.90
18541;DHT22;9400;50.924;5.328;2022-09-09T10:22:33;18.00;99.90
18541;DHT22;9400;50.924;5.328;2022-09-09T10:25:19;17.60;99.90
18541;DHT22;9400;50.924;5.328;2022-09-09T10:28:18;17.50;99.90
18541;DHT22;9400;50.924;5.328;2022-09-09T10:30:56;17.50;99.90
18541;DHT22;9400;50.924;5.328;2022-09-09T10:33:32;17.40;99.90
18541;DHT22;9400;50.924;5.328;2022-09-09T10:36:10;17.20;99.90
18541;DHT22;9400;50.924;5.328;2022-09-09T10:38:45;16.90;99.90
18541;DHT22;9400;50.924;5.328;2022-09-09T10:41:22;16.90;99.90
18541;DHT22;9400;50.924;5.328;2022-09-09T10:44:12;16.80;99.90
18541;DHT22;9400;50.924;5.328;2022-09-09T10:47:05;16.90;99.90
18541;DHT22;9400;50.924;5.328;2022-09-09T10:50:01;17.00;99.90
18541;DHT22;9400;50.924;5.328;2022-09-09T10:52:40;17.10;99.90
18541;DHT22;9400;50.924;5.328;2022-09-09T10:55:20;17.40;99.90
18541;DHT22;9400;50.924;5.328;2022-09-09T10:57:51;17.50;99.90
18541;DHT22;9400;50.924;5.328;2022-09-09T11:00:21;17.70;99.90
18541;DHT22;9400;50.924;5.328;2022-09-09T11:02:55;17.90;99.90
18541;DHT22;9400;50.924;5.328;2022-09-09T11:05:29;18.00;99.90
18541;DHT22;9400;50.924;5.328;2022-09-09T11:08:04;18.20;99.90
18541;DHT22;9400;50.924;5.328;2022-09-09T11:10:39;18.30;99.90
18541;DHT22;9400;50.924;5.328;2022-09-09T11:13:14;18.40;99.90
18541;DHT22;9400;50.924;5.328;2022-09-09T11:15:46;18.30;99.90
18541;DHT22;9400;50.924;5.328;2022-09-09T11:18:20;18.30;99.90
18541;DHT22;9400;50.924;5.328;2022-09-09T11:20:59;18.30;99.90
18541;DHT22;9400;50.924;5.328;2022-09-09T11:23:38;18.40;99.90
18541;DHT22;9400;50.924;5.328;2022-09-09T11:26:12;18.50;99.90
18541;DHT22;9400;50.924;5.328;2022-09-09T11:28:51;18.70;99.90
18541;DHT22;9400;50.924;5.328;2022-09-09T11:31:44;19.00;99.90
18541;DHT22;9400;50.924;5.328;2022-09-09T11:34:34;19.20;99.90
18541;DHT22;9400;50.924;5.328;2022-09-09T11:40:14;19.40;99.90
18541;DHT22;9400;50.924;5.328;2022-09-09T11:42:45;19.40;99.90
18541;DHT22;9400;50.924;5.328;2022-09-09T11:45:24;19.20;99.90
18541;DHT22;9400;50.924;5.328;2022-09-09T11:47:56;19.10;99.90
18541;DHT22;9400;50.924;5.328;2022-09-09T11:50:42;19.10;99.90
18541;DHT22;9400;50.924;5.328;2022-09-09T11:53:21;18.90;99.90
18541;DHT22;9400;50.924;5.328;2022-09-09T11:56:12;18.80;99.90
18541;DHT22;9400;50.924;5.328;2022-09-09T11:58:44;18.80;99.90
18541;DHT22;9400;50.924;5.328;2022-09-09T12:01:30;18.70;99.90
18541;DHT22;9400;50.924;5.328;2022-09-09T12:04:12;18.80;99.90
18541;DHT22;9400;50.924;5.328;2022-09-09T12:06:46;18.70;99.90
18541;DHT22;9400;50.924;5.328;2022-09-09T12:09:33;18.60;99.90
18541;DHT22;9400;50.924;5.328;2022-09-09T12:12:22;18.30;99.90
18541;DHT22;9400;50.924;5.328;2022-09-09T12:17:57;18.00;99.90
18541;DHT22;9400;50.924;5.328;2022-09-09T12:20:32;18.00;99.90
18541;DHT22;9400;50.924;5.328;2022-09-09T12:23:25;17.80;99.90
18541;DHT22;9400;50.924;5.328;2022-09-09T22:23:25;16.00;99.90
18541;DHT22;9400;50.924;5.328;2022-09-09T22:25:53;15.90;99.90
18541;DHT22;9400;50.924;5.328;2022-09-09T22:28:22;15.90;99.90
18541;DHT22;9400;50.924;5.328;2022-09-09T22:30:49;15.90;99.90
18541;DHT22;9400;50.924;5.328;2022-09-09T22:33:16;15.90;99.90
18541;DHT22;9400;50.924;5.328;2022-09-09T22:35:44;15.80;99.90
18541;DHT22;9400;50.924;5.328;2022-09-09T22:38:12;15.80;99.90
18541;DHT22;9400;50.924;5.328;2022-09-09T22:40:41;15.80;99.90
18541;DHT22;9400;50.924;5.328;2022-09-09T22:43:13;15.80;99.90
18541;DHT22;9400;50.924;5.328;2022-09-09T22:45:42;15.80;99.90
18541;DHT22;9400;50.924;5.328;2022-09-09T22:48:10;15.90;99.90
18541;DHT22;9400;50.924;5.328;2022-09-09T22:50:38;15.90;99.90
18541;DHT22;9400;50.924;5.328;2022-09-09T22:53:07;15.80;99.90
18541;DHT22;9400;50.924;5.328;2022-09-09T22:55:34;15.70;99.90
18541;DHT22;9400;50.924;5.328;2022-09-09T22:58:03;15.80;99.90
18541;DHT22;9400;50.924;5.328;2022-09-09T23:00:31;15.80;99.90
18541;DHT22;9400;50.924;5.328;2022-09-09T23:02:58;15.80;99.90
18541;DHT22;9400;50.924;5.328;2022-09-09T23:05:26;15.80;99.90
18541;DHT22;9400;50.924;5.328;2022-09-09T23:07:53;15.80;99.90
18541;DHT22;9400;50.924;5.328;2022-09-09T23:10:22;15.80;99.90
18541;DHT22;9400;50.924;5.328;2022-09-09T23:12:50;15.80;99.90
18541;DHT22;9400;50.924;5.328;2022-09-09T23:15:19;15.70;99.90
18541;DHT22;9400;50.924;5.328;2022-09-09T23:17:47;15.70;99.90
18541;DHT22;9400;50.924;5.328;2022-09-09T23:20:17;15.70;99.90
18541;DHT22;9400;50.924;5.328;2022-09-09T23:22:47;15.60;99.90
18541;DHT22;9400;50.924;5.328;2022-09-09T23:25:15;15.70;99.90
18541;DHT22;9400;50.924;5.328;2022-09-09T23:27:42;15.70;99.90
18541;DHT22;9400;50.924;5.328;2022-09-09T23:30:10;15.80;99.90
18541;DHT22;9400;50.924;5.328;2022-09-09T23:32:40;15.90;99.90
18541;DHT22;9400;50.924;5.328;2022-09-09T23:35:12;15.90;99.90
18541;DHT22;9400;50.924;5.328;2022-09-09T23:37:41;16.00;99.90
18541;DHT22;9400;50.924;5.328;2022-09-09T23:40:09;16.00;99.90
18541;DHT22;9400;50.924;5.328;2022-09-09T23:42:36;16.10;99.90
18541;DHT22;9400;50.924;5.328;2022-09-09T23:45:06;16.00;99.90
18541;DHT22;9400;50.924;5.328;2022-09-09T23:47:34;16.00;99.90
18541;DHT22;9400;50.924;5.328;2022-09-09T23:50:03;16.00;99.90
18541;DHT22;9400;50.924;5.328;2022-09-09T23:52:33;16.10;99.90
18541;DHT22;9400;50.924;5.328;2022-09-09T23:55:02;16.10;99.90
18541;DHT22;9400;50.924;5.328;2022-09-09T23:57:30;16.10;99.90
18541;DHT22;9400;50.924;5.328;2022-09-09T23:59:58;16.10;99.90
